Time;durP1;ratioP1;P1;durP2;ratioP2;P2;SDS_P1;SDS_P2;PMS_P1;PMS_P2;Temp;Humidity;BMP_temperature;BMP_pressure;BME280_temperature;BME280_humidity;BME280_pressure;Samples;Min_cycle;Max_cycle;Signal;HPM_P1;HPM_P2
2021/07/08 00:01:31;;;;;;;;;;;;;;;27.88;51.10;99832.97;5133255;27;19919;-38
2021/07/08 00:03:56;;;;;;;;;;;;;;;28.04;50.72;99830.63;5133319;27;19950;-37
2021/07/08 00:06:22;;;;;;;;;;;;;;;28.14;50.46;99824.06;5132950;27;19911;-37
2021/07/08 00:08:47;;;;;;;;;;;;;;;27.73;51.56;99827.94;5132449;27;20372;-37
2021/07/08 00:11:12;;;;;;;;;;;;;;;27.74;51.65;99830.38;5132487;27;19934;-38
2021/07/08 00:13:37;;;;;;;;;;;;;;;27.73;51.66;99836.16;5132658;27;19952;-37
2021/07/08 00:16:03;;;;;;;;;;;;;;;27.81;51.67;99836.16;5132031;27;19915;-35
2021/07/08 00:18:28;;;;;;;;;;;;;;;28.31;50.19;99831.47;5118788;27;20441;-37
2021/07/08 00:20:54;;;;;;;;;;;;;;;27.84;51.40;99841.00;5111719;28;19920;-37
2021/07/08 00:23:19;;;;;;;;;;;;;;;27.45;52.56;99833.59;5111923;28;19950;-37
2021/07/08 00:25:45;;;;;;;;;;;;;;;27.42;52.84;99835.06;5111962;28;19923;-37
2021/07/08 00:28:13;;;;;;;;;;;;;;;27.45;52.75;99833.59;5111657;28;19959;-37
2021/07/08 00:30:39;;;;;;;;;;;;;;;27.91;51.51;99840.56;5111184;28;20301;-37
2021/07/08 00:33:05;;;;;;;;;;;;;;;27.88;51.64;99836.53;5111309;28;19976;-38
2021/07/08 00:35:30;;;;;;;;;;;;;;;27.35;53.06;99839.34;5111762;28;19989;-38
2021/07/08 00:37:55;;;;;;;;;;;;;;;27.34;53.36;99844.03;5111874;28;20002;-38
2021/07/08 00:40:21;;;;;;;;;;;;;;;27.36;53.27;99841.78;5111723;28;19916;-37
2021/07/08 00:42:46;;;;;;;;;;;;;;;27.62;52.58;99852.81;5111659;28;19912;-37
2021/07/08 00:45:12;;;;;;;;;;;;;;;27.86;52.03;99846.97;5111733;28;20159;-38
2021/07/08 00:47:38;;;;;;;;;;;;;;;27.36;53.35;99858.16;5111785;28;20002;-38
2021/07/08 00:50:04;;;;;;;;;;;;;;;27.25;53.79;99868.53;5111817;28;19947;-38
2021/07/08 00:52:29;;;;;;;;;;;;;;;27.17;54.38;99876.63;5111810;28;20064;-37
2021/07/08 00:54:54;;;;;;;;;;;;;;;27.47;53.61;99864.16;5111902;28;20348;-38
2021/07/08 00:57:20;;;;;;;;;;;;;;;27.79;52.65;99876.69;5111638;28;19911;-38
2021/07/08 00:59:46;;;;;;;;;;;;;;;27.39;53.81;99867.66;5111470;28;19923;-38
2021/07/08 01:02:14;;;;;;;;;;;;;;;27.16;54.52;99867.66;5111651;28;20418;-35
2021/07/08 01:04:42;;;;;;;;;;;;;;;27.06;54.93;99865.97;5112082;28;20268;-37
2021/07/08 01:07:08;;;;;;;;;;;;;;;27.29;54.29;99874.19;5111990;28;19922;-37
2021/07/08 01:09:33;;;;;;;;;;;;;;;27.53;53.58;99867.56;5112150;28;19920;-37
2021/07/08 01:11:58;;;;;;;;;;;;;;;26.99;55.14;99862.06;5093754;28;19919;-38
2021/07/08 01:14:24;;;;;;;;;;;;;;;26.92;55.42;99865.22;5111989;28;19908;-38
2021/07/08 01:16:49;;;;;;;;;;;;;;;26.88;55.73;99869.69;5112993;28;19922;-37
2021/07/08 01:19:14;;;;;;;;;;;;;;;26.86;55.92;99869.19;5131742;27;20023;-38
2021/07/08 01:21:39;;;;;;;;;;;;;;;27.60;53.71;99863.25;5112104;27;19916;-38
2021/07/08 01:24:06;;;;;;;;;;;;;;;26.94;55.36;99857.56;5111789;28;19919;-38
2021/07/08 01:26:32;;;;;;;;;;;;;;;26.46;56.92;99864.31;5111419;28;20014;-38
2021/07/08 01:28:57;;;;;;;;;;;;;;;26.36;57.45;99864.56;5076488;28;20069;-38
2021/07/08 01:31:23;;;;;;;;;;;;;;;26.31;57.26;99862.75;5111664;28;19919;-37
2021/07/08 01:33:48;;;;;;;;;;;;;;;26.42;57.24;99859.78;5111855;28;19912;-38
2021/07/08 01:36:13;;;;;;;;;;;;;;;27.17;54.43;99849.31;5093587;28;19912;-38
2021/07/08 01:38:39;;;;;;;;;;;;;;;26.70;56.55;99863.28;5111891;28;19927;-38
2021/07/08 01:41:04;;;;;;;;;;;;;;;26.31;57.37;99864.66;5111309;28;20033;-37
2021/07/08 01:43:39;;;;;;;;;;;;;;;26.22;57.77;99863.78;5111443;28;19961;-37
2021/07/08 01:46:07;;;;;;;;;;;;;;;26.07;58.50;99859.44;5111470;28;19990;-37
2021/07/08 01:48:33;;;;;;;;;;;;;;;26.80;56.16;99849.41;5111652;28;19915;-37
2021/07/08 01:51:00;;;;;;;;;;;;;;;26.82;55.74;99849.88;5111539;28;19976;-38
2021/07/08 01:53:25;;;;;;;;;;;;;;;26.52;56.56;99854.09;5093660;28;19916;-38
2021/07/08 01:55:50;;;;;;;;;;;;;;;26.29;56.51;99853.25;5111538;28;19969;-38
2021/07/08 01:58:15;;;;;;;;;;;;;;;26.45;55.89;99851.00;5111525;28;20006;-37
2021/07/08 02:00:41;;;;;;;;;;;;;;;26.42;55.99;99857.06;5111435;28;19922;-38
2021/07/08 02:03:06;;;;;;;;;;;;;;;27.26;53.40;99851.03;5111490;28;19912;-37
2021/07/08 02:05:31;;;;;;;;;;;;;;;26.64;55.00;99853.63;5111302;28;19918;-37
2021/07/08 02:07:57;;;;;;;;;;;;;;;26.29;56.73;99861.44;5111297;28;19950;-37
2021/07/08 02:10:22;;;;;;;;;;;;;;;26.23;56.73;99863.44;5111169;28;19919;-37
2021/07/08 02:12:47;;;;;;;;;;;;;;;26.19;57.15;99864.38;5111254;28;19919;-38
2021/07/08 02:15:12;;;;;;;;;;;;;;;26.36;56.76;99870.00;5111684;28;19912;-38
2021/07/08 02:17:38;;;;;;;;;;;;;;;27.04;54.44;99872.88;5119348;28;20434;-40
2021/07/08 02:20:04;;;;;;;;;;;;;;;26.42;56.32;99878.88;5126019;28;19983;-38
2021/07/08 02:22:32;;;;;;;;;;;;;;;26.21;56.89;99876.59;5111162;28;20398;-38
2021/07/08 02:24:57;;;;;;;;;;;;;;;26.12;57.46;99876.50;5111239;28;19912;-38
2021/07/08 02:27:22;;;;;;;;;;;;;;;26.32;57.15;99877.19;5111316;28;19923;-38
2021/07/08 02:29:48;;;;;;;;;;;;;;;26.81;55.47;99877.53;5111322;28;20329;-37
2021/07/08 02:32:13;;;;;;;;;;;;;;;26.70;55.83;99880.47;5111421;28;19929;-38
2021/07/08 02:34:38;;;;;;;;;;;;;;;26.19;57.49;99878.81;5111548;28;19915;-38
2021/07/08 02:37:05;;;;;;;;;;;;;;;26.18;57.78;99874.50;5111536;28;20344;-38
2021/07/08 02:39:30;;;;;;;;;;;;;;;26.06;57.98;99877.72;5114666;28;20363;-38
2021/07/08 02:41:55;;;;;;;;;;;;;;;26.19;57.95;99864.38;5114840;28;19969;-38
2021/07/08 02:44:21;;;;;;;;;;;;;;;27.04;55.24;99862.75;5114862;28;19912;-37
2021/07/08 02:46:46;;;;;;;;;;;;;;;26.49;57.23;99873.84;5096729;28;20409;-38
2021/07/08 02:49:11;;;;;;;;;;;;;;;26.11;57.93;99880.34;5114563;28;20388;-37
2021/07/08 02:51:37;;;;;;;;;;;;;;;26.02;58.14;99873.97;5114759;28;19911;-38
2021/07/08 02:54:02;;;;;;;;;;;;;;;25.95;58.38;99879.06;5114847;28;20295;-38
2021/07/08 02:56:27;;;;;;;;;;;;;;;26.02;58.10;99884.88;5114795;28;19908;-37
2021/07/08 02:58:52;;;;;;;;;;;;;;;26.81;55.32;99875.59;5114511;28;19958;-38
2021/07/08 03:01:18;;;;;;;;;;;;;;;26.15;57.62;99880.53;5114147;28;19912;-38
2021/07/08 03:03:43;;;;;;;;;;;;;;;26.07;57.97;99894.91;5114080;28;19943;-38
2021/07/08 03:06:08;;;;;;;;;;;;;;;26.08;57.73;99886.41;5124468;27;20306;-37
2021/07/08 03:08:33;;;;;;;;;;;;;;;26.16;57.56;99889.53;5134719;27;20001;-38
2021/07/08 03:10:59;;;;;;;;;;;;;;;26.58;56.19;99890.28;5134606;27;19915;-38
2021/07/08 03:13:24;;;;;;;;;;;;;;;26.50;56.04;99897.25;5134508;27;19919;-37
2021/07/08 03:15:49;;;;;;;;;;;;;;;26.30;56.31;99898.50;5134858;27;19916;-37
2021/07/08 03:18:15;;;;;;;;;;;;;;;26.32;55.95;99904.47;5134635;27;19919;-37
2021/07/08 03:20:45;;;;;;;;;;;;;;;26.17;55.65;99913.78;5134329;27;20274;-37
2021/07/08 03:23:10;;;;;;;;;;;;;;;26.10;55.93;99918.81;5135083;27;19976;-38
2021/07/08 03:25:35;;;;;;;;;;;;;;;26.94;53.28;99914.06;5134500;27;19916;-39
2021/07/08 03:28:01;;;;;;;;;;;;;;;26.24;55.37;99914.19;5134189;27;20290;-37
2021/07/08 03:30:27;;;;;;;;;;;;;;;25.98;56.53;99916.59;5134547;27;19968;-38
2021/07/08 03:32:52;;;;;;;;;;;;;;;26.06;56.10;99923.25;5134461;27;19973;-38
2021/07/08 03:35:18;;;;;;;;;;;;;;;26.09;56.30;99920.75;5134237;27;19911;-38
2021/07/08 03:37:43;;;;;;;;;;;;;;;26.09;56.62;99923.47;5134363;27;20035;-37
2021/07/08 03:40:09;;;;;;;;;;;;;;;27.08;53.42;99910.16;5133929;27;19916;-38
2021/07/08 03:42:35;;;;;;;;;;;;;;;26.32;55.81;99918.91;5134339;27;19911;-38
2021/07/08 03:45:01;;;;;;;;;;;;;;;25.86;57.23;99919.00;5134192;27;19912;-38
2021/07/08 03:47:26;;;;;;;;;;;;;;;26.07;56.82;99920.22;5134136;27;20056;-38
2021/07/08 03:49:52;;;;;;;;;;;;;;;26.28;56.63;99912.44;5133408;27;19915;-38
2021/07/08 03:52:17;;;;;;;;;;;;;;;26.79;55.40;99924.22;5114146;27;20050;-36
2021/07/08 03:54:42;;;;;;;;;;;;;;;26.77;55.12;99923.72;5113340;28;19919;-38
2021/07/08 03:57:08;;;;;;;;;;;;;;;26.14;56.86;99928.00;5112094;28;20283;-38
2021/07/08 03:59:33;;;;;;;;;;;;;;;25.98;57.51;99923.97;5113366;28;20332;-38
2021/07/08 04:01:58;;;;;;;;;;;;;;;25.70;58.35;99927.44;5114351;27;19923;-40
2021/07/08 04:04:23;;;;;;;;;;;;;;;25.86;58.07;99932.63;5113621;28;19967;-37
2021/07/08 04:06:49;;;;;;;;;;;;;;;26.61;55.91;99914.25;5113572;28;20260;-37
2021/07/08 04:09:14;;;;;;;;;;;;;;;26.29;56.96;99929.63;5113611;28;19912;-40
2021/07/08 04:11:40;;;;;;;;;;;;;;;26.21;56.53;99935.78;5113428;28;19916;-38
2021/07/08 04:14:05;;;;;;;;;;;;;;;26.22;55.71;99938.22;5113509;28;19977;-41
2021/07/08 04:16:30;;;;;;;;;;;;;;;26.45;54.86;99939.09;5113485;28;19915;-36
2021/07/08 04:18:55;;;;;;;;;;;;;;;26.75;54.15;99930.59;5112468;28;19920;-38
2021/07/08 04:21:21;;;;;;;;;;;;;;;27.49;51.68;99927.50;5112840;28;19998;-37
2021/07/08 04:23:46;;;;;;;;;;;;;;;26.95;52.89;99930.13;5112506;28;19912;-38
2021/07/08 04:26:11;;;;;;;;;;;;;;;26.64;53.85;99932.75;5112240;28;19924;-37
2021/07/08 04:28:37;;;;;;;;;;;;;;;26.62;53.80;99926.81;5112505;28;19918;-37
2021/07/08 04:31:03;;;;;;;;;;;;;;;26.71;53.61;99933.13;5112689;28;19911;-38
2021/07/08 04:33:28;;;;;;;;;;;;;;;27.41;51.64;99931.00;5112681;28;19912;-38
2021/07/08 04:35:53;;;;;;;;;;;;;;;27.13;51.83;99936.56;5112597;28;19912;-38
2021/07/08 04:38:18;;;;;;;;;;;;;;;26.76;52.90;99938.47;5112805;28;19920;-38
2021/07/08 04:40:44;;;;;;;;;;;;;;;26.93;52.28;99946.03;5112729;28;19959;-37
2021/07/08 04:43:10;;;;;;;;;;;;;;;27.01;52.15;99942.53;5112534;28;19959;-38
2021/07/08 04:45:35;;;;;;;;;;;;;;;27.23;51.51;99938.22;5111975;28;19961;-38
2021/07/08 04:48:01;;;;;;;;;;;;;;;27.90;49.25;99931.13;5112245;28;19969;-38
2021/07/08 04:50:26;;;;;;;;;;;;;;;27.50;50.38;99931.84;5111367;28;19934;-37
2021/07/08 04:52:52;;;;;;;;;;;;;;;27.14;51.06;99938.16;5111654;28;19916;-38
2021/07/08 04:55:17;;;;;;;;;;;;;;;27.06;51.61;99944.38;5111626;28;19968;-38
2021/07/08 04:57:44;;;;;;;;;;;;;;;27.22;51.36;99942.88;5111571;28;20308;-38
2021/07/08 05:00:10;;;;;;;;;;;;;;;27.64;50.10;99956.38;5111114;28;19916;-38
2021/07/08 05:02:36;;;;;;;;;;;;;;;28.35;48.03;99953.66;5112904;27;19919;-37
2021/07/08 05:05:01;;;;;;;;;;;;;;;27.46;50.44;99948.06;5096815;28;19938;-37
2021/07/08 05:07:26;;;;;;;;;;;;;;;27.26;50.33;99946.66;5091139;28;20003;-38
2021/07/08 05:09:51;;;;;;;;;;;;;;;27.34;50.14;99952.47;5090944;28;20383;-38
2021/07/08 05:12:17;;;;;;;;;;;;;;;27.68;49.48;99947.25;5090957;28;20383;-38
2021/07/08 05:14:42;;;;;;;;;;;;;;;27.95;48.60;99950.13;5091183;28;20002;-39
2021/07/08 05:17:07;;;;;;;;;;;;;;;28.51;47.59;99947.75;5090845;28;19916;-39
2021/07/08 05:19:33;;;;;;;;;;;;;;;28.12;48.56;99952.94;5091552;28;20003;-39
2021/07/08 05:22:00;;;;;;;;;;;;;;;27.72;49.87;99952.06;5111133;28;20354;-38
2021/07/08 05:24:26;;;;;;;;;;;;;;;27.94;49.45;99954.78;5111526;28;19950;-38
2021/07/08 05:26:51;;;;;;;;;;;;;;;27.84;49.79;99958.56;5111099;28;20348;-38
2021/07/08 05:29:17;;;;;;;;;;;;;;;28.33;48.76;99969.59;5111154;28;19916;-38
2021/07/08 05:31:42;;;;;;;;;;;;;;;29.12;46.76;99970.53;5110955;28;19934;-38
2021/07/08 05:34:07;;;;;;;;;;;;;;;28.46;48.15;99963.19;5111246;28;20483;-38
2021/07/08 05:36:32;;;;;;;;;;;;;;;28.26;48.01;99969.25;5111002;28;20455;-37
2021/07/08 05:38:58;;;;;;;;;;;;;;;28.05;48.36;99961.59;5111156;28;19916;-38
2021/07/08 05:41:23;;;;;;;;;;;;;;;28.65;47.48;99964.84;5111672;28;20385;-39
2021/07/08 05:43:48;;;;;;;;;;;;;;;29.14;46.42;99957.34;5111219;28;19912;-38
2021/07/08 05:46:14;;;;;;;;;;;;;;;29.92;44.46;99967.41;5110741;28;20002;-37
2021/07/08 05:48:39;;;;;;;;;;;;;;;30.09;44.00;99972.03;5111348;28;20030;-38
2021/07/08 05:51:04;;;;;;;;;;;;;;;30.44;42.92;99980.13;5111468;28;19911;-38
2021/07/08 05:53:29;;;;;;;;;;;;;;;30.80;42.20;99987.00;5111164;28;19922;-38
2021/07/08 05:55:55;;;;;;;;;;;;;;;31.10;41.87;99996.03;5111210;28;20333;-37
2021/07/08 05:58:20;;;;;;;;;;;;;;;31.82;40.09;99989.56;5110116;28;19944;-38
2021/07/08 06:00:47;;;;;;;;;;;;;;;31.52;40.90;99989.72;5111398;28;20264;-37
2021/07/08 06:03:13;;;;;;;;;;;;;;;30.87;42.11;99992.78;5111567;28;20065;-38
2021/07/08 06:05:38;;;;;;;;;;;;;;;30.50;42.31;99995.28;5111207;28;20390;-38
2021/07/08 06:08:04;;;;;;;;;;;;;;;30.52;42.61;99998.50;5111135;28;19919;-37
2021/07/08 06:10:29;;;;;;;;;;;;;;;30.46;42.11;100007.25;5111224;28;19996;-38
2021/07/08 06:12:54;;;;;;;;;;;;;;;31.49;40.23;100012.38;5112803;28;19911;-38
2021/07/08 06:15:20;;;;;;;;;;;;;;;30.32;42.36;100012.97;5115672;27;19916;-37
2021/07/08 06:17:46;;;;;;;;;;;;;;;30.05;43.23;100019.66;5115115;28;19975;-37
2021/07/08 06:20:12;;;;;;;;;;;;;;;30.16;43.04;100013.47;5114772;28;19966;-38
2021/07/08 06:22:37;;;;;;;;;;;;;;;30.13;43.25;100014.13;5115569;28;19998;-38
2021/07/08 06:25:03;;;;;;;;;;;;;;;30.48;42.21;100013.19;5115418;28;20390;-37
2021/07/08 06:27:28;;;;;;;;;;;;;;;31.18;41.28;100019.88;5115245;28;19912;-38
2021/07/08 06:29:54;;;;;;;;;;;;;;;30.66;42.26;100019.41;5115171;28;20244;-38
2021/07/08 06:32:19;;;;;;;;;;;;;;;30.60;42.47;100011.38;5114856;28;19916;-39
2021/07/08 06:34:44;;;;;;;;;;;;;;;30.85;41.72;100010.75;5115140;28;19935;-38
2021/07/08 06:37:10;;;;;;;;;;;;;;;31.05;41.08;100011.91;5114547;28;19964;-38
2021/07/08 06:39:35;;;;;;;;;;;;;;;31.75;39.73;100012.91;5114264;28;19962;-38
2021/07/08 06:42:01;;;;;;;;;;;;;;;32.32;38.88;100011.31;5114574;28;19927;-37
2021/07/08 06:44:26;;;;;;;;;;;;;;;31.74;40.05;100016.03;5114240;28;19911;-38
2021/07/08 06:46:53;;;;;;;;;;;;;;;31.49;40.54;100017.88;5115035;28;19912;-38
2021/07/08 06:49:18;;;;;;;;;;;;;;;31.37;40.17;100019.41;5114045;28;19912;-37
2021/07/08 06:51:43;;;;;;;;;;;;;;;31.51;40.48;100013.66;5114670;28;19918;-38
2021/07/08 06:54:08;;;;;;;;;;;;;;;32.25;39.17;100016.63;5114230;28;19916;-37
2021/07/08 06:56:34;;;;;;;;;;;;;;;31.60;40.51;100021.81;5114485;28;19911;-39
2021/07/08 06:58:59;;;;;;;;;;;;;;;30.88;42.19;100021.03;5114338;28;19920;-38
2021/07/08 07:01:24;;;;;;;;;;;;;;;30.39;42.52;100025.03;5114546;28;20295;-38
2021/07/08 07:03:49;;;;;;;;;;;;;;;30.33;43.05;100018.13;5114228;28;19916;-38
2021/07/08 07:06:15;;;;;;;;;;;;;;;31.10;41.78;100020.75;5113858;28;19911;-37
2021/07/08 07:08:40;;;;;;;;;;;;;;;31.20;41.35;100021.50;5114360;28;19915;-36
2021/07/08 07:11:06;;;;;;;;;;;;;;;31.13;41.38;100022.84;5114143;28;20006;-38
2021/07/08 07:13:31;;;;;;;;;;;;;;;31.45;41.38;100014.97;5114412;28;19919;-37
2021/07/08 07:15:56;;;;;;;;;;;;;;;31.70;40.76;100017.84;5114090;28;20000;-38
2021/07/08 07:18:22;;;;;;;;;;;;;;;31.96;39.93;100023.88;5114031;28;20058;-37
2021/07/08 07:20:47;;;;;;;;;;;;;;;33.16;37.53;100010.00;5113812;28;19955;-38
2021/07/08 07:23:12;;;;;;;;;;;;;;;32.97;38.08;100016.13;5113847;28;20289;-38
2021/07/08 07:25:41;;;;;;;;;;;;;;;33.11;38.57;100019.34;5112519;28;19911;-38
2021/07/08 07:28:07;;;;;;;;;;;;;;;33.41;37.72;100018.19;5113436;28;19911;-38
2021/07/08 07:30:32;;;;;;;;;;;;;;;33.81;36.62;100009.84;5113599;28;20007;-38
2021/07/08 07:32:57;;;;;;;;;;;;;;;34.87;34.54;100008.50;5114085;28;19947;-38
2021/07/08 07:35:23;;;;;;;;;;;;;;;35.00;34.18;100016.28;5113994;28;19951;-38
2021/07/08 07:37:51;;;;;;;;;;;;;;;35.07;33.88;100012.06;5113825;28;19912;-39
2021/07/08 07:40:17;;;;;;;;;;;;;;;35.41;34.06;100005.72;5113018;28;20000;-39
2021/07/08 07:42:43;;;;;;;;;;;;;;;35.58;32.95;100007.19;5113468;28;20010;-38
2021/07/08 07:45:08;;;;;;;;;;;;;;;35.66;33.42;100012.88;5114021;28;19973;-38
2021/07/08 07:47:33;;;;;;;;;;;;;;;36.46;32.43;100008.38;5113212;28;20431;-38
2021/07/08 07:49:59;;;;;;;;;;;;;;;36.30;32.35;100004.94;5113640;28;19995;-39
2021/07/08 07:52:24;;;;;;;;;;;;;;;36.17;32.60;100001.56;5113518;28;19912;-38
2021/07/08 07:54:50;;;;;;;;;;;;;;;36.41;33.04;100003.13;5095261;28;19969;-39
2021/07/08 07:57:15;;;;;;;;;;;;;;;36.51;32.50;99999.72;5113639;28;19998;-38
2021/07/08 07:59:40;;;;;;;;;;;;;;;37.56;31.13;100001.88;5113242;28;20284;-38
2021/07/08 08:02:10;;;;;;;;;;;;;;;36.86;32.41;99995.06;5113594;28;19912;-38
2021/07/08 08:04:42;;;;;;;;;;;;;;;36.54;32.71;99990.66;5113412;28;19912;-38
2021/07/08 08:09:51;;;;;;;;;;;;;;;37.61;30.32;99995.22;5112969;28;19924;-36
2021/07/08 08:12:16;;;;;;;;;;;;;;;36.79;32.25;99991.03;5113272;28;19919;-37
2021/07/08 08:14:41;;;;;;;;;;;;;;;36.59;31.64;99987.56;5120294;27;20278;-38
2021/07/08 08:17:07;;;;;;;;;;;;;;;36.89;31.67;99988.78;5133829;27;19916;-37
2021/07/08 08:19:32;;;;;;;;;;;;;;;37.84;29.81;99990.28;5132298;27;20014;-38
2021/07/08 08:21:57;;;;;;;;;;;;;;;37.36;30.47;99982.66;5112960;28;19919;-38
2021/07/08 08:24:23;;;;;;;;;;;;;;;37.22;30.34;99990.78;5113099;28;19912;-38
2021/07/08 08:26:51;;;;;;;;;;;;;;;37.25;30.21;99987.28;5112818;28;19911;-38
2021/07/08 08:29:17;;;;;;;;;;;;;;;37.11;30.04;99984.28;5113087;28;19915;-38
2021/07/08 08:31:42;;;;;;;;;;;;;;;38.33;28.75;99982.78;5112588;28;20431;-39
2021/07/08 08:34:08;;;;;;;;;;;;;;;37.32;30.85;99994.91;5112437;28;20305;-39
2021/07/08 08:36:33;;;;;;;;;;;;;;;36.27;31.43;100000.13;5112132;28;19998;-39
2021/07/08 08:38:58;;;;;;;;;;;;;;;36.06;31.33;99995.81;5112793;28;19923;-38
2021/07/08 08:41:23;;;;;;;;;;;;;;;36.53;31.14;99986.28;5112479;28;20347;-39
2021/07/08 08:43:49;;;;;;;;;;;;;;;37.57;29.75;99995.16;5112182;28;19908;-38
2021/07/08 08:46:14;;;;;;;;;;;;;;;37.22;28.99;99985.25;5112322;28;20298;-39
2021/07/08 08:48:39;;;;;;;;;;;;;;;36.79;29.67;99993.81;5112870;28;19955;-39
2021/07/08 08:51:06;;;;;;;;;;;;;;;36.36;30.88;99997.91;5112135;28;20285;-38
2021/07/08 08:53:31;;;;;;;;;;;;;;;36.66;30.49;99988.88;5112042;28;19920;-38
2021/07/08 08:55:57;;;;;;;;;;;;;;;36.86;29.90;99987.56;5112346;28;19916;-38
2021/07/08 08:58:22;;;;;;;;;;;;;;;36.59;30.69;99993.13;5112295;28;19912;-38
2021/07/08 09:00:50;;;;;;;;;;;;;;;36.47;30.50;99985.00;5112273;28;20307;-38
2021/07/08 09:03:17;;;;;;;;;;;;;;;35.66;32.03;99990.72;5112186;28;19998;-38
2021/07/08 09:05:43;;;;;;;;;;;;;;;35.93;31.96;99980.56;5112176;28;19935;-38
2021/07/08 09:08:15;;;;;;;;;;;;;;;36.06;31.38;99987.50;5112169;28;19972;-39
2021/07/08 09:10:40;;;;;;;;;;;;;;;36.31;31.55;99985.19;5111939;28;19915;-39
2021/07/08 09:13:06;;;;;;;;;;;;;;;36.12;31.55;99985.22;5111553;28;19912;-39
2021/07/08 09:15:31;;;;;;;;;;;;;;;35.85;31.78;99984.38;5125820;27;20003;-39
2021/07/08 09:17:56;;;;;;;;;;;;;;;36.20;31.34;99986.97;5113624;27;19919;-38
2021/07/08 09:20:21;;;;;;;;;;;;;;;36.75;30.95;99976.34;5124021;27;19923;-38
2021/07/08 09:22:47;;;;;;;;;;;;;;;37.25;30.26;99976.19;5112063;28;19955;-39
2021/07/08 09:25:19;;;;;;;;;;;;;;;37.90;29.17;99982.41;5093406;28;20028;-39
2021/07/08 09:27:44;;;;;;;;;;;;;;;36.86;29.92;99970.94;5111659;28;19928;-39
2021/07/08 09:30:09;;;;;;;;;;;;;;;37.27;30.38;99962.72;5111410;28;20359;-38
2021/07/08 09:32:35;;;;;;;;;;;;;;;37.72;30.44;99962.81;5076350;28;19911;-38
2021/07/08 09:35:00;;;;;;;;;;;;;;;37.66;29.71;99961.56;5111792;28;20326;-39
2021/07/08 09:37:26;;;;;;;;;;;;;;;37.15;29.78;99963.00;5111039;28;19934;-39
2021/07/08 09:39:53;;;;;;;;;;;;;;;36.65;30.53;99967.84;5111232;28;19923;-38
2021/07/08 09:42:31;;;;;;;;;;;;;;;36.30;31.93;99966.94;5111700;28;20003;-38
2021/07/08 09:45:08;;;;;;;;;;;;;;;36.32;30.90;99958.28;5118198;28;19911;-38
2021/07/08 09:47:34;;;;;;;;;;;;;;;36.15;32.17;99973.41;5135217;27;19931;-38
2021/07/08 09:49:59;;;;;;;;;;;;;;;35.86;32.50;99963.84;5137374;27;19938;-39
2021/07/08 09:52:25;;;;;;;;;;;;;;;36.43;30.68;99967.53;5120088;27;20274;-38
2021/07/08 09:57:40;;;;;;;;;;;;;;;36.18;31.12;99959.66;5139120;27;19919;-39
2021/07/08 10:00:25;;;;;;;;;;;;;;;35.67;32.22;99959.94;5138730;27;19995;-38
2021/07/08 10:02:51;;;;;;;;;;;;;;;35.99;31.35;99952.19;5138401;27;20018;-40
2021/07/08 10:05:17;;;;;;;;;;;;;;;36.60;30.16;99953.13;5138238;27;20381;-39
2021/07/08 10:07:42;;;;;;;;;;;;;;;36.19;31.25;99947.41;5138861;27;19911;-41
2021/07/08 10:10:08;;;;;;;;;;;;;;;36.25;29.96;99953.41;5138645;27;19916;-39
2021/07/08 10:12:33;;;;;;;;;;;;;;;36.63;29.68;99948.81;5139011;27;19916;-41
2021/07/08 10:15:00;;;;;;;;;;;;;;;37.36;28.35;99934.69;5139008;27;19916;-38
2021/07/08 10:17:25;;;;;;;;;;;;;;;38.07;27.42;99940.13;5139149;27;20034;-40
2021/07/08 10:19:50;;;;;;;;;;;;;;;37.25;28.67;99944.88;5116410;28;20400;-39
2021/07/08 10:22:16;;;;;;;;;;;;;;;36.94;28.84;99942.13;5118397;28;19907;-38
2021/07/08 10:24:41;;;;;;;;;;;;;;;37.38;27.95;99937.88;5118288;28;19911;-46
2021/07/08 10:27:07;;;;;;;;;;;;;;;37.56;28.70;99929.72;5118242;28;19916;-38
2021/07/08 10:29:32;;;;;;;;;;;;;;;38.04;28.67;99931.72;5118086;28;19940;-39
2021/07/08 10:31:58;;;;;;;;;;;;;;;38.79;27.49;99932.22;5099512;28;20349;-39
2021/07/08 10:34:23;;;;;;;;;;;;;;;37.92;27.69;99928.06;5117316;28;19943;-40
2021/07/08 10:36:49;;;;;;;;;;;;;;;37.71;27.03;99920.38;5099514;28;20408;-39
2021/07/08 10:39:15;;;;;;;;;;;;;;;37.44;27.71;99916.94;5117364;28;19923;-37
2021/07/08 10:41:44;;;;;;;;;;;;;;;37.41;28.05;99916.88;5117933;28;20381;-37
2021/07/08 10:44:28;;;;;;;;;;;;;;;36.73;28.95;99916.91;5120519;27;19984;-39
2021/07/08 10:46:53;;;;;;;;;;;;;;;36.82;28.58;99909.09;5138403;27;19968;-39
2021/07/08 10:49:19;;;;;;;;;;;;;;;36.72;29.79;99912.53;5138174;27;19915;-38
2021/07/08 10:51:44;;;;;;;;;;;;;;;37.08;28.72;99910.97;5138420;27;19930;-38
2021/07/08 10:54:28;;;;;;;;;;;;;;;37.06;28.72;99902.25;5138469;27;19919;-39
2021/07/08 10:56:57;;;;;;;;;;;;;;;37.07;28.79;99908.56;5138382;27;19942;-39
2021/07/08 10:59:22;;;;;;;;;;;;;;;37.24;28.21;99912.75;5136271;27;19922;-41
2021/07/08 11:01:51;;;;;;;;;;;;;;;37.30;28.17;99911.22;5134978;27;19911;-38
2021/07/08 11:04:17;;;;;;;;;;;;;;;37.19;28.65;99902.81;5135226;27;19972;-39
2021/07/08 11:06:43;;;;;;;;;;;;;;;37.45;28.63;99904.66;5116179;27;20360;-39
2021/07/08 11:09:11;;;;;;;;;;;;;;;38.27;26.86;99896.22;5134836;27;19911;-39
2021/07/08 11:11:45;;;;;;;;;;;;;;;38.15;27.14;99899.28;5135028;27;20259;-38
2021/07/08 11:14:11;;;;;;;;;;;;;;;36.89;28.70;99898.09;5134866;27;19911;-39
2021/07/08 11:16:43;;;;;;;;;;;;;;;36.08;30.65;99896.56;5135220;27;19922;-37
2021/07/08 11:19:09;;;;;;;;;;;;;;;36.24;30.51;99892.88;5115843;27;19920;-39
2021/07/08 11:21:50;;;;;;;;;;;;;;;36.59;29.36;99889.78;5116249;27;20383;-39
2021/07/08 11:24:18;;;;;;;;;;;;;;;36.67;28.79;99883.19;5113868;28;19911;-39
2021/07/08 11:26:57;;;;;;;;;;;;;;;37.53;28.56;99883.31;5113804;28;19912;-40
2021/07/08 11:29:32;;;;;;;;;;;;;;;38.04;27.12;99874.22;5114029;28;20376;-38
2021/07/08 11:31:57;;;;;;;;;;;;;;;39.15;26.24;99892.59;5113539;28;20358;-39
2021/07/08 11:34:22;;;;;;;;;;;;;;;38.53;26.83;99886.81;5114343;28;19912;-39
2021/07/08 11:36:48;;;;;;;;;;;;;;;37.28;28.16;99888.63;5113939;28;19912;-38
2021/07/08 11:39:13;;;;;;;;;;;;;;;36.64;29.45;99880.34;5113824;28;19919;-39
2021/07/08 11:41:40;;;;;;;;;;;;;;;35.89;30.37;99883.63;5113986;28;19923;-39
2021/07/08 11:44:06;;;;;;;;;;;;;;;36.79;29.17;99874.63;5095962;28;19918;-39
2021/07/08 11:46:31;;;;;;;;;;;;;;;36.54;28.70;99882.59;5112350;28;20015;-39
2021/07/08 11:48:56;;;;;;;;;;;;;;;36.79;28.83;99874.63;5113216;28;20394;-39
2021/07/08 11:51:25;;;;;;;;;;;;;;;36.95;29.05;99882.69;5113991;28;19912;-38
2021/07/08 11:53:51;;;;;;;;;;;;;;;37.42;27.92;99876.88;5113489;28;19926;-39
2021/07/08 11:56:16;;;;;;;;;;;;;;;37.61;28.36;99873.91;5113688;28;19929;-38
2021/07/08 11:58:42;;;;;;;;;;;;;;;38.37;26.97;99875.22;5113261;28;19912;-38
2021/07/08 12:01:08;;;;;;;;;;;;;;;38.11;28.14;99871.50;5113100;28;19915;-39
2021/07/08 12:03:40;;;;;;;;;;;;;;;37.95;27.76;99880.09;5113258;28;20402;-38
2021/07/08 12:06:06;;;;;;;;;;;;;;;37.89;27.21;99878.06;5113470;28;19968;-38
2021/07/08 12:08:33;;;;;;;;;;;;;;;37.97;27.31;99870.56;5113060;27;19912;-40
2021/07/08 12:11:22;;;;;;;;;;;;;;;37.50;26.84;99867.44;5112961;28;19912;-40
2021/07/08 12:13:47;;;;;;;;;;;;;;;36.94;27.80;99870.03;5113042;28;19943;-39
2021/07/08 12:16:12;;;;;;;;;;;;;;;37.13;27.65;99871.03;5113181;28;19965;-39
2021/07/08 12:18:42;;;;;;;;;;;;;;;37.19;27.63;99869.53;5113315;28;20000;-39
2021/07/08 12:21:16;;;;;;;;;;;;;;;38.11;26.50;99871.50;5112774;28;19919;-39
2021/07/08 12:23:43;;;;;;;;;;;;;;;37.25;28.41;99867.22;5113658;28;19929;-39
2021/07/08 12:26:40;;;;;;;;;;;;;;;36.67;29.16;99869.34;5113030;28;20396;-39
2021/07/08 12:29:15;;;;;;;;;;;;;;;36.66;29.80;99869.69;5067597;28;20264;-39
2021/07/08 12:31:45;;;;;;;;;;;;;;;36.87;29.34;99877.47;5112814;28;19924;-39
2021/07/08 12:34:10;;;;;;;;;;;;;;;36.47;29.74;99871.41;5112661;28;19919;-38
2021/07/08 12:36:35;;;;;;;;;;;;;;;35.94;30.82;99869.44;5113184;28;19912;-39
2021/07/08 12:39:01;;;;;;;;;;;;;;;35.75;32.30;99875.09;5112695;28;19919;-40
2021/07/08 12:41:26;;;;;;;;;;;;;;;35.31;34.34;99894.88;5112364;28;19965;-38
2021/07/08 12:43:51;;;;;;;;;;;;;;;35.46;33.18;99887.63;5094117;28;19912;-39
2021/07/08 12:46:17;;;;;;;;;;;;;;;35.02;34.84;99900.63;5112798;28;19951;-39